Time;durP1;ratioP1;P1;durP2;ratioP2;P2;SDS_P1;SDS_P2;PMS_P1;PMS_P2;Temp;Humidity;BMP_temperature;BMP_pressure;BME280_temperature;BME280_humidity;BME280_pressure;Samples;Min_cycle;Max_cycle;Signal;HPM_P1;HPM_P2
2022/02/03 00:00:01;;;;;;;;;;;;;;;25.09;30.53;97936.19;172785;28;1044;-50
2022/02/03 00:00:17;;;;;;;;;;;;;;;25.11;30.30;97932.47;172397;28;936;-49
2022/02/03 00:00:43;;;;;;;;;;;;;;;25.11;30.46;97929.84;174015;28;952;-49
2022/02/03 00:00:48;;;;;;;;;;;;;;;25.11;30.59;97936.91;173858;28;825;-50
2022/02/03 00:00:54;;;;;;;;;;;;;;;25.11;30.66;97936.91;174041;28;1216;-50
2022/02/03 00:01:02;;;;;;;;;;;;;;;25.10;30.59;97932.59;174126;28;922;-50
2022/02/03 00:01:13;;;;;;;;;;;;;;;25.07;30.64;97933.66;174845;28;1192;-50
2022/02/03 00:01:23;;;;;;;;;;;;;;;25.09;30.38;97934.38;174660;28;1137;-49
2022/02/03 00:01:40;;;;;;;;;;;;;;;25.07;30.54;97931.03;174613;28;1034;-49
2022/02/03 00:02:15;;;;;;;;;;;;;;;25.06;30.26;97931.97;173921;28;951;-50
2022/02/03 00:02:35;;;;;;;;;;;;;;;25.06;30.35;97929.34;173967;28;4706;-49
2022/02/03 00:02:51;;;;;;;;;;;;;;;25.05;30.69;97931.13;173953;28;1042;-50
2022/02/03 00:03:11;;;;;;;;;;;;;;;25.05;30.33;97930.28;173977;28;825;-48
2022/02/03 00:03:37;;;;;;;;;;;;;;;25.05;30.40;97932.94;175427;28;840;-50
2022/02/03 00:03:57;;;;;;;;;;;;;;;25.05;30.30;97930.28;174459;28;922;-49
2022/02/03 00:04:08;;;;;;;;;;;;;;;25.04;30.30;97929.44;174473;28;1013;-49
2022/02/03 00:04:16;;;;;;;;;;;;;;;25.05;30.33;97932.94;174653;28;1069;-50
2022/02/03 00:04:22;;;;;;;;;;;;;;;25.04;30.49;97931.22;174006;28;893;-50
2022/02/03 00:04:31;;;;;;;;;;;;;;;25.04;30.53;97928.56;173230;28;1357;-50
2022/02/03 00:04:44;;;;;;;;;;;;;;;25.04;30.30;97933.84;173223;28;1030;-49
2022/02/03 00:05:09;;;;;;;;;;;;;;;25.04;30.38;97934.72;173091;28;1063;-49
2022/02/03 00:05:19;;;;;;;;;;;;;;;25.08;30.33;97931.84;173189;28;912;-50
2022/02/03 00:06:05;;;;;;;;;;;;;;;25.06;30.29;97929.34;173290;28;1122;-48
2022/02/03 00:06:06;;;;;;;;;;;;;;;25.04;30.26;97934.72;169329;29;4338;-50
2022/02/03 00:06:14;;;;;;;;;;;;;;;25.06;30.55;97931.97;173906;28;1046;-50
2022/02/03 00:06:30;;;;;;;;;;;;;;;25.09;30.34;97928.25;173960;28;916;-50
2022/02/03 00:07:01;;;;;;;;;;;;;;;25.07;30.57;97928.38;175301;28;978;-50
2022/02/03 00:07:05;;;;;;;;;;;;;;;25.09;30.61;97936.19;174900;28;1215;-50
2022/02/03 00:07:14;;;;;;;;;;;;;;;25.10;30.31;97929.94;174851;28;1108;-50
2022/02/03 00:07:25;;;;;;;;;;;;;;;25.09;30.50;97931.75;175403;28;833;-50
2022/02/03 00:07:45;;;;;;;;;;;;;;;25.09;30.44;97937.03;174823;28;1439;-51
2022/02/03 00:08:32;;;;;;;;;;;;;;;25.10;30.53;97935.22;171981;28;699;-49
2022/02/03 00:10:40;;;;;;;;;;;;;;;25.00;30.35;97932.38;172608;28;1121;-50
2022/02/03 00:11:23;;;;;;;;;;;;;;;25.00;30.43;97932.38;172538;28;1201;-48
2022/02/03 00:21:58;;;;;;;;;;;;;;;24.81;30.76;97942.53;175366;28;705;-48
2022/02/03 00:22:05;;;;;;;;;;;;;;;24.79;30.85;97951.38;174019;28;791;-48
2022/02/03 00:22:30;;;;;;;;;;;;;;;24.79;30.97;97948.72;173814;28;4690;-49
2022/02/03 00:23:33;;;;;;;;;;;;;;;24.83;31.03;97954.66;172626;28;928;-50
2022/02/03 00:24:14;;;;;;;;;;;;;;;24.89;30.72;97950.75;173273;28;1026;-50
2022/02/03 00:24:25;;;;;;;;;;;;;;;24.90;30.70;97941.88;173329;28;781;-49
2022/02/03 00:24:37;;;;;;;;;;;;;;;24.87;30.93;97955.28;172500;28;935;-50
2022/02/03 00:24:39;;;;;;;;;;;;;;;24.90;30.57;97949.81;173331;28;857;-50
2022/02/03 00:24:51;;;;;;;;;;;;;;;24.91;30.79;97948.84;172389;28;860;-49
2022/02/03 00:25:26;;;;;;;;;;;;;;;24.95;30.53;97952.94;173606;28;868;-49
2022/02/03 00:25:34;;;;;;;;;;;;;;;24.94;30.89;97949.47;172729;28;758;-49
2022/02/03 00:25:41;;;;;;;;;;;;;;;24.95;30.72;97951.16;173791;28;1110;-50
2022/02/03 00:25:46;;;;;;;;;;;;;;;24.94;30.83;97943.34;173912;28;813;-48
2022/02/03 00:25:52;;;;;;;;;;;;;;;24.95;30.53;97948.50;172711;28;4228;-50
2022/02/03 00:25:58;;;;;;;;;;;;;;;24.96;30.82;97950.22;174034;28;896;-49
2022/02/03 00:26:03;;;;;;;;;;;;;;;24.96;30.70;97947.59;173799;28;1156;-50
2022/02/03 00:26:11;;;;;;;;;;;;;;;24.96;30.62;97952.84;173746;28;968;-49
2022/02/03 00:26:17;;;;;;;;;;;;;;;24.96;30.84;97951.97;173375;28;849;-49
2022/02/03 00:26:24;;;;;;;;;;;;;;;24.96;30.78;97952.84;173369;28;857;-51
2022/02/03 00:26:30;;;;;;;;;;;;;;;24.98;30.62;97945.66;174713;28;900;-50
2022/02/03 00:26:36;;;;;;;;;;;;;;;25.00;30.71;97953.47;174014;28;983;-49
2022/02/03 00:27:17;;;;;;;;;;;;;;;25.01;30.80;97952.53;173497;28;806;-50
2022/02/03 00:27:36;;;;;;;;;;;;;;;25.02;30.57;97954.19;172325;28;995;-51
2022/02/03 00:28:12;;;;;;;;;;;;;;;25.03;30.36;97961.19;174026;28;639;-50
2022/02/03 00:28:23;;;;;;;;;;;;;;;25.04;30.69;97949.69;173364;28;846;-50
2022/02/03 00:28:30;;;;;;;;;;;;;;;25.08;30.35;97955.59;173980;28;835;-48
2022/02/03 00:28:40;;;;;;;;;;;;;;;25.07;30.54;97954.78;173306;28;1134;-50
2022/02/03 00:28:48;;;;;;;;;;;;;;;25.06;30.38;97955.72;173326;28;1134;-50
2022/02/03 00:28:53;;;;;;;;;;;;;;;25.07;30.37;97959.19;173240;28;896;-50
2022/02/03 00:29:04;;;;;;;;;;;;;;;25.07;30.68;97956.56;173283;28;1182;-50
2022/02/03 00:29:17;;;;;;;;;;;;;;;25.07;30.67;97948.66;172732;28;1823;-49
2022/02/03 00:29:44;;;;;;;;;;;;;;;25.03;30.69;97955.91;172385;28;979;-50
2022/02/03 00:29:56;;;;;;;;;;;;;;;25.05;30.55;97952.25;172654;28;1401;-49
2022/02/03 00:30:06;;;;;;;;;;;;;;;25.05;30.62;97961.97;172193;28;4404;-49
2022/02/03 00:30:14;;;;;;;;;;;;;;;25.03;30.74;97950.63;172568;28;1075;-50
2022/02/03 00:30:21;;;;;;;;;;;;;;;25.03;30.42;97956.75;171846;28;1094;-50
2022/02/03 00:31:07;;;;;;;;;;;;;;;25.07;30.47;97948.66;172562;28;952;-50
2022/02/03 00:31:30;;;;;;;;;;;;;;;25.07;30.31;97951.28;172538;28;885;-50
2022/02/03 00:31:45;;;;;;;;;;;;;;;25.05;30.84;97952.25;173957;28;917;-49
2022/02/03 00:32:05;;;;;;;;;;;;;;;25.04;30.65;97952.31;173293;28;932;-50
2022/02/03 00:32:17;;;;;;;;;;;;;;;25.05;30.28;97952.25;174508;28;869;-50
2022/02/03 00:33:18;;;;;;;;;;;;;;;25.07;30.59;97953.94;174627;28;999;-50
2022/02/03 00:33:37;;;;;;;;;;;;;;;25.03;30.63;97951.47;174243;28;1963;-50
2022/02/03 00:34:01;;;;;;;;;;;;;;;25.06;30.55;97953.09;173869;28;1009;-50
2022/02/03 00:34:21;;;;;;;;;;;;;;;25.05;30.60;97961.97;174500;28;4472;-50
2022/02/03 00:34:34;;;;;;;;;;;;;;;25.03;30.67;97955.91;174705;28;1300;-50
2022/02/03 00:35:04;;;;;;;;;;;;;;;25.05;30.56;97959.31;175016;28;1065;-50
2022/02/03 00:35:48;;;;;;;;;;;;;;;25.07;30.57;97952.13;174713;28;939;-50
2022/02/03 00:36:26;;;;;;;;;;;;;;;25.04;30.43;97950.56;174628;28;868;-50
2022/02/03 00:36:52;;;;;;;;;;;;;;;25.03;30.27;97954.13;174054;28;936;-50
2022/02/03 00:37:09;;;;;;;;;;;;;;;25.01;30.69;97957.78;174401;28;1034;-50
2022/02/03 00:37:30;;;;;;;;;;;;;;;25.03;30.50;97954.13;174623;28;1148;-49
2022/02/03 00:37:59;;;;;;;;;;;;;;;25.05;30.68;97960.16;174682;28;1070;-49
2022/02/03 00:38:17;;;;;;;;;;;;;;;25.04;30.38;97954.97;173318;28;4512;-49
2022/02/03 00:38:42;;;;;;;;;;;;;;;25.02;30.53;97951.56;173938;28;1053;-51
2022/02/03 00:48:23;;;;;;;;;;;;;;;24.78;30.77;97964.66;173851;28;643;-48
2022/02/03 00:48:33;;;;;;;;;;;;;;;24.78;30.88;97956.75;173940;28;892;-49
2022/02/03 00:49:13;;;;;;;;;;;;;;;24.77;30.90;97955.91;174074;28;888;-49
2022/02/03 00:49:14;;;;;;;;;;;;;;;24.82;30.96;97954.75;173172;28;999;-50
2022/02/03 00:49:19;;;;;;;;;;;;;;;24.82;30.87;97960.03;173977;28;883;-48
2022/02/03 00:49:25;;;;;;;;;;;;;;;24.81;30.98;97961.84;174498;28;1098;-50
2022/02/03 00:49:37;;;;;;;;;;;;;;;24.82;31.00;97960.03;174310;28;1515;-48
2022/02/03 00:50:22;;;;;;;;;;;;;;;24.88;31.00;97962.22;174462;28;4273;-50
2022/02/03 00:50:31;;;;;;;;;;;;;;;24.91;30.72;97956.75;174585;28;1310;-48
2022/02/03 00:50:43;;;;;;;;;;;;;;;24.90;30.64;97957.72;173934;28;853;-51
2022/02/03 00:50:50;;;;;;;;;;;;;;;24.92;30.80;97955.81;174430;28;857;-50
2022/02/03 00:50:56;;;;;;;;;;;;;;;24.94;30.52;97953.91;173913;28;1188;-49
2022/02/03 00:51:02;;;;;;;;;;;;;;;24.92;30.78;97956.66;173161;28;942;-50
2022/02/03 00:51:07;;;;;;;;;;;;;;;24.94;30.53;97960.00;173252;28;1157;-49
2022/02/03 00:51:12;;;;;;;;;;;;;;;24.91;30.73;97952.31;173238;28;885;-50
2022/02/03 00:51:18;;;;;;;;;;;;;;;24.94;30.72;97957.38;173215;28;1263;-49
2022/02/03 00:51:23;;;;;;;;;;;;;;;24.95;30.66;97958.22;173172;28;913;-51
2022/02/03 00:51:30;;;;;;;;;;;;;;;24.97;30.75;97958.97;173274;28;798;-51
2022/02/03 00:51:36;;;;;;;;;;;;;;;24.98;30.48;97961.50;172611;28;901;-49
2022/02/03 00:51:48;;;;;;;;;;;;;;;24.98;30.51;97955.38;173153;28;1100;-50
2022/02/03 00:52:00;;;;;;;;;;;;;;;25.00;30.68;97964.03;172651;28;1018;-48
2022/02/03 00:52:05;;;;;;;;;;;;;;;25.01;30.53;97960.44;172661;28;1142;-49
2022/02/03 00:52:10;;;;;;;;;;;;;;;25.01;30.75;97960.44;173294;28;848;-50
2022/02/03 00:52:15;;;;;;;;;;;;;;;24.99;30.68;97957.91;173348;28;818;-48
2022/02/03 00:52:21;;;;;;;;;;;;;;;25.01;30.61;97952.53;173232;28;1169;-50
2022/02/03 00:52:27;;;;;;;;;;;;;;;25.01;30.63;97956.00;172981;28;790;-50
2022/02/03 00:52:33;;;;;;;;;;;;;;;25.01;30.75;97960.44;173247;28;1241;-50
2022/02/03 00:52:40;;;;;;;;;;;;;;;25.00;30.49;97958.75;172653;28;838;-50
2022/02/03 00:52:45;;;;;;;;;;;;;;;25.00;30.31;97956.97;173766;28;904;-50
2022/02/03 00:52:50;;;;;;;;;;;;;;;25.00;30.43;97956.13;173372;28;817;-50
2022/02/03 00:52:57;;;;;;;;;;;;;;;25.00;30.42;97956.13;174460;28;1097;-50
2022/02/03 00:53:03;;;;;;;;;;;;;;;25.00;30.66;97954.31;174428;28;985;-49
2022/02/03 00:53:13;;;;;;;;;;;;;;;25.00;30.46;97959.59;174645;28;1338;-49
2022/02/03 00:53:20;;;;;;;;;;;;;;;25.01;30.68;97960.44;174588;28;1128;-50
2022/02/03 00:53:25;;;;;;;;;;;;;;;25.01;30.43;97957.78;174697;28;802;-49
2022/02/03 00:53:30;;;;;;;;;;;;;;;25.00;30.66;97961.38;174616;28;1169;-50
2022/02/03 00:53:36;;;;;;;;;;;;;;;25.01;30.43;97956.00;173992;28;872;-50
2022/02/03 00:53:41;;;;;;;;;;;;;;;25.00;30.73;97953.47;173878;28;1130;-50
2022/02/03 00:53:47;;;;;;;;;;;;;;;25.02;30.39;97965.59;174616;28;944;-50
2022/02/03 00:53:52;;;;;;;;;;;;;;;25.03;30.40;97953.28;174602;28;1145;-49
2022/02/03 00:53:58;;;;;;;;;;;;;;;25.03;30.62;97958.56;174271;28;4255;-48
2022/02/03 00:54:08;;;;;;;;;;;;;;;25.04;30.43;97958.47;174467;28;1113;-49
2022/02/03 00:54:14;;;;;;;;;;;;;;;25.04;30.65;97952.31;174631;28;829;-50
2022/02/03 00:54:21;;;;;;;;;;;;;;;25.04;30.48;97957.59;174708;28;932;-50
2022/02/03 00:54:30;;;;;;;;;;;;;;;25.02;30.72;97962.97;174646;28;962;-50
2022/02/03 00:54:35;;;;;;;;;;;;;;;25.04;30.42;97962.88;174683;28;865;-48
2022/02/03 00:54:40;;;;;;;;;;;;;;;25.04;30.74;97955.84;174668;28;1184;-50
2022/02/03 00:54:46;;;;;;;;;;;;;;;25.05;30.30;97956.69;174453;28;869;-49
2022/02/03 00:54:51;;;;;;;;;;;;;;;25.05;30.42;97956.69;174628;28;1172;-49
2022/02/03 00:54:56;;;;;;;;;;;;;;;25.05;30.52;97959.31;174690;28;892;-50
2022/02/03 00:55:02;;;;;;;;;;;;;;;25.05;30.45;97959.31;174275;28;1010;-50
2022/02/03 00:55:07;;;;;;;;;;;;;;;25.05;30.45;97962.81;174039;28;829;-51
2022/02/03 00:55:13;;;;;;;;;;;;;;;25.02;30.55;97957.69;173947;28;896;-50
2022/02/03 00:55:18;;;;;;;;;;;;;;;25.05;30.53;97961.97;174605;28;1366;-50
2022/02/03 00:55:23;;;;;;;;;;;;;;;25.04;30.61;97965.53;174194;28;936;-50
2022/02/03 00:55:34;;;;;;;;;;;;;;;25.04;30.55;97963.75;174326;28;1310;-50
2022/02/03 00:55:39;;;;;;;;;;;;;;;25.03;30.43;97959.41;174476;28;1622;-49
2022/02/03 00:55:45;;;;;;;;;;;;;;;25.03;30.38;97962.03;174806;28;891;-49
2022/02/03 00:55:51;;;;;;;;;;;;;;;25.04;30.56;97961.13;174216;28;1025;-50
2022/02/03 00:55:59;;;;;;;;;;;;;;;25.04;30.46;97954.97;174724;28;827;-50
2022/02/03 00:56:07;;;;;;;;;;;;;;;25.04;30.52;97963.75;173814;28;1271;-49
2022/02/03 00:56:13;;;;;;;;;;;;;;;25.04;30.29;97961.13;173994;28;1140;-50
2022/02/03 00:56:26;;;;;;;;;;;;;;;25.03;30.60;97959.41;174210;28;896;-50
2022/02/03 00:56:32;;;;;;;;;;;;;;;25.03;30.33;97962.03;173981;28;829;-48
2022/02/03 00:56:38;;;;;;;;;;;;;;;25.03;30.65;97961.19;173296;28;1126;-50
2022/02/03 00:56:53;;;;;;;;;;;;;;;25.03;30.58;97961.19;173209;28;853;-49
2022/02/03 00:57:03;;;;;;;;;;;;;;;25.01;30.61;97963.06;172668;28;850;-49
2022/02/03 00:57:09;;;;;;;;;;;;;;;25.00;30.66;97964.03;172644;28;877;-49
2022/02/03 00:57:40;;;;;;;;;;;;;;;25.00;30.33;97959.59;173015;28;1106;-50
2022/02/03 00:57:49;;;;;;;;;;;;;;;24.98;30.63;97958.88;170474;28;941;-50
2022/02/03 00:57:55;;;;;;;;;;;;;;;25.00;30.53;97964.03;172964;28;4319;-50
2022/02/03 00:58:00;;;;;;;;;;;;;;;25.00;30.74;97959.59;173491;28;821;-48
2022/02/03 00:58:05;;;;;;;;;;;;;;;24.98;30.40;97961.50;173269;28;806;-50
2022/02/03 00:58:10;;;;;;;;;;;;;;;24.99;30.53;97962.34;172980;28;986;-50
2022/02/03 00:58:17;;;;;;;;;;;;;;;24.99;30.61;97965.81;173346;28;996;-50
2022/02/03 00:58:25;;;;;;;;;;;;;;;25.00;30.56;97962.22;173379;28;1129;-49
2022/02/03 00:58:30;;;;;;;;;;;;;;;25.01;30.69;97960.44;173348;28;774;-48
2022/02/03 00:58:40;;;;;;;;;;;;;;;24.99;30.68;97963.19;172934;28;1160;-50
2022/02/03 00:58:48;;;;;;;;;;;;;;;25.00;30.63;97961.38;172424;28;1048;-50
2022/02/03 00:59:13;;;;;;;;;;;;;;;25.00;30.40;97962.22;172657;28;1027;-49
2022/02/03 00:59:21;;;;;;;;;;;;;;;24.99;30.56;97965.81;172608;28;812;-48
2022/02/03 00:59:26;;;;;;;;;;;;;;;24.99;30.70;97971.09;172614;28;937;-50
2022/02/03 00:59:38;;;;;;;;;;;;;;;24.98;30.58;97963.31;172644;28;866;-50
2022/02/03 00:59:49;;;;;;;;;;;;;;;24.98;30.43;97965.94;172429;28;802;-50
2022/02/03 01:00:02;;;;;;;;;;;;;;;24.98;30.55;97965.94;172025;28;849;-49
2022/02/03 01:00:07;;;;;;;;;;;;;;;24.98;30.55;97960.66;172622;28;1138;-50
2022/02/03 01:00:13;;;;;;;;;;;;;;;24.98;30.78;97966.78;174641;28;897;-49
2022/02/03 01:00:19;;;;;;;;;;;;;;;24.98;30.38;97963.31;174727;28;817;-49
2022/02/03 01:00:24;;;;;;;;;;;;;;;24.98;30.35;97968.56;174039;28;973;-49
2022/02/03 01:00:29;;;;;;;;;;;;;;;24.98;30.61;97960.66;173913;28;1181;-49
2022/02/03 01:00:34;;;;;;;;;;;;;;;24.96;30.61;97958.13;173944;28;1145;-51
2022/02/03 01:00:39;;;;;;;;;;;;;;;24.96;30.74;97962.53;174024;28;944;-50
2022/02/03 01:00:49;;;;;;;;;;;;;;;24.98;30.54;97960.66;173789;28;1156;-49
2022/02/03 01:00:57;;;;;;;;;;;;;;;24.98;30.84;97966.78;174001;28;821;-49
2022/02/03 01:01:02;;;;;;;;;;;;;;;24.97;30.48;97956.34;173810;28;989;-49
2022/02/03 01:01:08;;;;;;;;;;;;;;;24.97;30.58;97965.09;173291;28;1197;-50
2022/02/03 01:01:14;;;;;;;;;;;;;;;24.98;30.56;97964.13;173287;28;885;-49
2022/02/03 01:01:20;;;;;;;;;;;;;;;24.97;30.67;97958.97;172123;28;1072;-50
2022/02/03 01:01:27;;;;;;;;;;;;;;;24.99;30.48;97967.63;172849;28;996;-50
2022/02/03 01:01:33;;;;;;;;;;;;;;;25.01;30.37;97965.72;172542;28;1221;-48
2022/02/03 01:01:40;;;;;;;;;;;;;;;25.00;30.40;97956.13;172643;28;794;-50
2022/02/03 01:01:46;;;;;;;;;;;;;;;25.01;30.66;97965.72;172841;28;1078;-50
2022/02/03 01:01:51;;;;;;;;;;;;;;;25.01;30.50;97963.91;172078;28;4258;-49
2022/02/03 01:01:56;;;;;;;;;;;;;;;25.02;30.41;97962.13;172955;28;1173;-49
2022/02/03 01:02:05;;;;;;;;;;;;;;;25.03;30.49;97956.75;172609;28;1046;-49
2022/02/03 01:02:11;;;;;;;;;;;;;;;25.04;30.43;97961.13;172578;28;869;-50
2022/02/03 01:02:16;;;;;;;;;;;;;;;25.03;30.26;97955.91;172281;28;1511;-49
2022/02/03 01:02:22;;;;;;;;;;;;;;;25.04;30.63;97954.97;172421;28;1538;-48
2022/02/03 01:02:28;;;;;;;;;;;;;;;25.03;30.53;97961.19;171944;28;882;-50
2022/02/03 01:02:36;;;;;;;;;;;;;;;25.02;30.23;97957.69;172448;28;988;-49
2022/02/03 01:02:42;;;;;;;;;;;;;;;25.03;30.41;97955.91;172434;28;1141;-50
2022/02/03 01:02:48;;;;;;;;;;;;;;;25.04;30.58;97957.59;172502;28;842;-49
2022/02/03 01:03:16;;;;;;;;;;;;;;;25.04;30.59;97958.47;172646;28;1227;-49
2022/02/03 01:03:23;;;;;;;;;;;;;;;25.07;30.51;97957.41;170580;29;1331;-49
2022/02/03 01:03:29;;;;;;;;;;;;;;;25.07;30.29;97957.41;170361;29;1207;-49
2022/02/03 01:03:34;;;;;;;;;;;;;;;25.05;30.46;97951.41;169878;29;873;-49
2022/02/03 01:03:40;;;;;;;;;;;;;;;25.06;30.39;97958.38;171809;28;1221;-50
2022/02/03 01:03:51;;;;;;;;;;;;;;;25.07;30.20;97957.41;171971;28;1060;-50
2022/02/03 01:03:57;;;;;;;;;;;;;;;25.06;30.32;97950.44;171213;28;996;-50
2022/02/03 01:04:07;;;;;;;;;;;;;;;25.06;30.46;97947.81;171789;28;940;-49
2022/02/03 01:04:12;;;;;;;;;;;;;;;25.04;30.61;97957.59;172342;28;803;-49
2022/02/03 01:04:18;;;;;;;;;;;;;;;25.03;30.39;97955.91;173057;28;1099;-50
2022/02/03 01:04:23;;;;;;;;;;;;;;;25.06;30.42;97950.44;173304;28;873;-50
2022/02/03 01:04:28;;;;;;;;;;;;;;;25.05;30.52;97960.16;173236;28;1471;-49
2022/02/03 01:04:36;;;;;;;;;;;;;;;25.06;30.34;97955.72;173207;28;984;-51
2022/02/03 01:04:42;;;;;;;;;;;;;;;25.08;30.44;97951.16;173525;28;1012;-50
2022/02/03 01:04:47;;;;;;;;;;;;;;;25.07;30.50;97957.41;173468;28;976;-48
2022/02/03 01:04:52;;;;;;;;;;;;;;;25.07;30.35;97954.78;172870;28;1157;-50
2022/02/03 01:04:59;;;;;;;;;;;;;;;25.08;30.38;97956.44;173330;28;921;-50
2022/02/03 01:05:04;;;;;;;;;;;;;;;25.08;30.65;97953.81;172288;28;1309;-49
2022/02/03 01:05:10;;;;;;;;;;;;;;;25.09;30.39;97955.50;171941;28;901;-50
2022/02/03 01:05:15;;;;;;;;;;;;;;;25.07;30.44;97952.13;172137;28;1202;-48
2022/02/03 01:05:20;;;;;;;;;;;;;;;25.08;30.60;97952.97;172623;28;822;-49
2022/02/03 01:05:26;;;;;;;;;;;;;;;25.08;30.51;97956.44;172456;28;1098;-49
2022/02/03 01:05:31;;;;;;;;;;;;;;;25.09;30.30;97952.00;171978;28;1009;-50
2022/02/03 01:05:37;;;;;;;;;;;;;;;25.08;30.51;97959.09;171818;28;846;-50
2022/02/03 01:05:44;;;;;;;;;;;;;;;25.08;30.50;97958.25;171877;28;914;-50
2022/02/03 01:05:50;;;;;;;;;;;;;;;25.07;30.59;97952.13;170758;28;4281;-50
2022/02/03 01:05:56;;;;;;;;;;;;;;;25.07;30.26;97959.19;172346;28;872;-50
2022/02/03 01:06:02;;;;;;;;;;;;;;;25.06;30.25;97958.38;172424;28;960;-49
2022/02/03 01:06:07;;;;;;;;;;;;;;;25.07;30.28;97960.03;172598;28;810;-50
2022/02/03 01:06:13;;;;;;;;;;;;;;;25.07;30.29;97953.94;171877;28;1134;-48
2022/02/03 01:06:20;;;;;;;;;;;;;;;25.07;30.52;97952.13;171979;28;853;-50
2022/02/03 01:06:26;;;;;;;;;;;;;;;25.08;30.39;97956.44;172123;28;1198;-50
2022/02/03 01:06:32;;;;;;;;;;;;;;;25.08;30.37;97960.88;172350;28;692;-49
2022/02/03 01:06:45;;;;;;;;;;;;;;;25.08;30.26;97952.97;171851;28;1123;-50
2022/02/03 01:06:53;;;;;;;;;;;;;;;25.08;30.51;97955.59;172159;28;1149;-50
2022/02/03 01:06:59;;;;;;;;;;;;;;;25.07;30.52;97959.19;171788;28;889;-49
2022/02/03 01:07:07;;;;;;;;;;;;;;;25.06;30.46;97961.00;172644;28;874;-49
2022/02/03 01:07:15;;;;;;;;;;;;;;;25.05;30.65;97956.69;172569;28;1134;-50
2022/02/03 01:07:21;;;;;;;;;;;;;;;25.04;30.36;97953.19;173178;28;829;-49
2022/02/03 01:07:26;;;;;;;;;;;;;;;25.07;30.28;97954.78;173176;28;1102;-49
2022/02/03 01:07:33;;;;;;;;;;;;;;;25.07;30.50;97953.94;173311;28;1249;-50
2022/02/03 01:07:39;;;;;;;;;;;;;;;25.07;30.44;97954.78;173224;28;1148;-50
2022/02/03 01:07:45;;;;;;;;;;;;;;;25.07;30.34;97949.50;173239;28;841;-49
2022/02/03 01:07:51;;;;;;;;;;;;;;;25.08;30.55;97953.81;173207;28;1126;-49
2022/02/03 01:07:56;;;;;;;;;;;;;;;25.07;30.44;97948.66;173319;28;820;-49
2022/02/03 01:08:04;;;;;;;;;;;;;;;25.06;30.25;97953.09;172988;28;1015;-48
2022/02/03 01:08:16;;;;;;;;;;;;;;;25.06;30.46;97950.44;173314;28;896;-49
2022/02/03 01:08:23;;;;;;;;;;;;;;;25.04;30.45;97950.56;172736;28;854;-50
2022/02/03 01:08:30;;;;;;;;;;;;;;;25.06;30.23;97955.72;173966;28;1354;-50
2022/02/03 01:08:35;;;;;;;;;;;;;;;25.07;30.34;97952.13;173920;28;1098;-50
2022/02/03 01:08:42;;;;;;;;;;;;;;;25.08;30.57;97959.09;172615;28;885;-49
2022/02/03 01:08:48;;;;;;;;;;;;;;;25.08;30.39;97951.16;173105;28;856;-48
2022/02/03 01:08:54;;;;;;;;;;;;;;;25.09;30.57;97954.66;172628;28;874;-48
2022/02/03 01:08:59;;;;;;;;;;;;;;;25.07;30.55;97952.13;172727;28;1126;-49
2022/02/03 01:09:07;;;;;;;;;;;;;;;25.08;30.37;97953.81;173295;28;1372;-50
2022/02/03 01:09:12;;;;;;;;;;;;;;;25.08;30.39;97950.34;173231;28;1114;-49
2022/02/03 01:09:18;;;;;;;;;;;;;;;25.08;30.35;97953.81;173271;28;833;-50
2022/02/03 01:09:24;;;;;;;;;;;;;;;25.08;30.40;97953.81;173606;28;1142;-48
2022/02/03 01:09:31;;;;;;;;;;;;;;;25.07;30.41;97954.78;174002;28;869;-49
2022/02/03 01:09:39;;;;;;;;;;;;;;;25.07;30.59;97949.50;173234;28;1898;-50
2022/02/03 01:09:54;;;;;;;;;;;;;;;25.08;30.61;97955.59;173178;28;1066;-49
2022/02/03 01:10:06;;;;;;;;;;;;;;;25.09;30.44;97958.13;173049;28;4554;-50
2022/02/03 01:10:19;;;;;;;;;;;;;;;25.09;30.17;97947.56;173219;28;1145;-50
2022/02/03 01:10:30;;;;;;;;;;;;;;;25.09;30.51;97952.84;173412;28;826;-50
2022/02/03 01:10:40;;;;;;;;;;;;;;;25.10;30.49;97945.78;173882;28;1201;-50
2022/02/03 01:10:51;;;;;;;;;;;;;;;25.09;30.13;97950.22;174004;28;1155;-50
2022/02/03 01:11:12;;;;;;;;;;;;;;;25.08;30.59;97951.16;174226;28;1302;-48
2022/02/03 01:11:23;;;;;;;;;;;;;;;25.04;30.25;97953.19;173797;28;897;-49
2022/02/03 01:11:33;;;;;;;;;;;;;;;25.03;30.46;97956.75;173320;28;889;-50
2022/02/03 01:11:43;;;;;;;;;;;;;;;25.06;30.60;97955.72;173717;28;932;-50
2022/02/03 01:11:50;;;;;;;;;;;;;;;25.05;30.51;97954.03;173894;28;833;-50
2022/02/03 01:12:37;;;;;;;;;;;;;;;25.04;30.60;97947.91;173326;28;644;-49
2022/02/03 01:13:01;;;;;;;;;;;;;;;25.02;30.44;97947.13;173522;28;1501;-50
2022/02/03 01:13:19;;;;;;;;;;;;;;;25.03;30.42;97956.75;173871;28;1053;-50
2022/02/03 01:13:58;;;;;;;;;;;;;;;25.00;30.54;97949.03;175136;28;656;-49
2022/02/03 01:14:09;;;;;;;;;;;;;;;25.01;30.33;97948.09;174059;28;4277;-50
2022/02/03 01:14:21;;;;;;;;;;;;;;;25.00;30.33;97945.56;174031;28;896;-50
2022/02/03 01:14:42;;;;;;;;;;;;;;;25.01;30.59;97952.53;173952;28;959;-51
2022/02/03 01:14:57;;;;;;;;;;;;;;;24.99;30.58;97949.16;173595;28;995;-50
2022/02/03 01:15:45;;;;;;;;;;;;;;;25.00;30.66;97942.91;174753;28;636;-50
2022/02/03 01:16:00;;;;;;;;;;;;;;;24.96;30.83;97950.22;173814;28;882;-50
2022/02/03 01:17:26;;;;;;;;;;;;;;;24.92;30.45;97945.25;174716;28;872;-50
2022/02/03 01:18:36;;;;;;;;;;;;;;;24.90;30.67;97952.44;173930;28;1288;-48
2022/02/03 01:19:07;;;;;;;;;;;;;;;24.91;30.73;97947.06;174147;28;1046;-50
2022/02/03 01:20:53;;;;;;;;;;;;;;;24.83;30.57;97951.19;174565;28;1235;-50
2022/02/03 01:21:42;;;;;;;;;;;;;;;24.82;30.90;97955.59;174046;28;809;-50
2022/02/03 01:34:43;;;;;;;;;;;;;;;24.70;31.19;97964.34;172238;28;1726;-48
2022/02/03 01:36:55;;;;;;;;;;;;;;;24.70;30.92;97965.19;173691;28;889;-50
2022/02/03 01:37:23;;;;;;;;;;;;;;;24.74;30.90;97968.47;173311;28;701;-50
2022/02/03 01:37:50;;;;;;;;;;;;;;;24.73;30.87;97972.91;173955;28;1069;-50
2022/02/03 01:43:47;;;;;;;;;;;;;;;24.72;30.93;97959.81;169336;29;1504;-50
2022/02/03 01:44:29;;;;;;;;;;;;;;;24.74;30.99;97966.69;169967;29;621;-48
2022/02/03 01:44:46;;;;;;;;;;;;;;;24.73;30.83;97962.38;170590;29;889;-49
2022/02/03 01:44:59;;;;;;;;;;;;;;;24.75;31.06;97967.53;169773;29;1229;-50
2022/02/03 01:45:08;;;;;;;;;;;;;;;24.77;30.68;97963.81;170212;28;1007;-50
2022/02/03 01:45:20;;;;;;;;;;;;;;;24.78;30.79;97968.16;171255;28;846;-49
2022/02/03 01:45:47;;;;;;;;;;;;;;;24.79;30.82;97958.44;170634;29;916;-50
2022/02/03 01:45:56;;;;;;;;;;;;;;;24.79;30.62;97961.91;169742;28;1425;-49
2022/02/03 01:46:16;;;;;;;;;;;;;;;24.84;30.84;97963.41;170394;28;4307;-50
2022/02/03 01:46:29;;;;;;;;;;;;;;;24.85;30.90;97955.38;171212;28;830;-48
2022/02/03 01:46:52;;;;;;;;;;;;;;;24.84;30.75;97958.97;171995;28;1015;-48
2022/02/03 01:47:10;;;;;;;;;;;;;;;24.88;30.79;97963.06;173880;28;773;-50
2022/02/03 01:47:49;;;;;;;;;;;;;;;24.88;30.49;97960.44;173260;28;1073;-49
2022/02/03 01:48:20;;;;;;;;;;;;;;;24.88;30.86;97959.59;173232;28;861;-50
2022/02/03 01:49:12;;;;;;;;;;;;;;;24.89;30.74;97966.59;172516;28;758;-49
2022/02/03 01:49:28;;;;;;;;;;;;;;;24.90;30.51;97955.06;172585;28;869;-50
2022/02/03 01:51:42;;;;;;;;;;;;;;;24.84;30.75;97956.34;173969;28;1020;-48
2022/02/03 01:51:54;;;;;;;;;;;;;;;24.79;30.71;97956.66;172884;28;1134;-49
2022/02/03 01:52:00;;;;;;;;;;;;;;;24.78;30.65;97954.97;173376;28;1115;-49
2022/02/03 01:52:05;;;;;;;;;;;;;;;24.78;30.72;97954.13;173220;28;945;-49
2022/02/03 01:52:10;;;;;;;;;;;;;;;24.78;30.73;97956.75;173189;28;1197;-49
2022/02/03 01:52:24;;;;;;;;;;;;;;;24.77;30.71;97960.34;173267;28;877;-50
2022/02/03 01:52:29;;;;;;;;;;;;;;;24.78;30.61;97954.97;172722;28;1020;-49
2022/02/03 01:52:41;;;;;;;;;;;;;;;24.77;30.78;97953.28;173590;28;1221;-50
2022/02/03 01:52:47;;;;;;;;;;;;;;;24.77;30.97;97950.63;173267;28;1104;-49
2022/02/03 01:52:53;;;;;;;;;;;;;;;24.79;30.92;97961.91;173309;28;793;-49
2022/02/03 01:52:58;;;;;;;;;;;;;;;24.82;31.03;97957.41;173642;28;1177;-49
2022/02/03 01:53:03;;;;;;;;;;;;;;;24.82;30.70;97960.03;172450;28;1217;-50
2022/02/03 01:53:08;;;;;;;;;;;;;;;24.82;30.79;97955.59;172257;28;1130;-50
2022/02/03 01:53:13;;;;;;;;;;;;;;;24.83;31.00;97959.09;172556;28;903;-49
2022/02/03 01:53:19;;;;;;;;;;;;;;;24.82;30.61;97955.59;171883;28;1213;-50
2022/02/03 01:53:24;;;;;;;;;;;;;;;24.84;30.80;97958.13;171942;28;905;-50